createdAt,value
2023-03-31T00:01:48.196Z,97571.03
2023-03-31T00:04:53.355Z,97572.78
2023-03-31T00:08:01.344Z,97565.41
2023-03-31T00:11:07.355Z,97564.22
2023-03-31T00:14:10.981Z,97557.94
2023-03-31T00:17:15.819Z,97556.97
2023-03-31T00:20:18.943Z,97550.41
2023-03-31T00:23:28.011Z,97550.63
2023-03-31T00:26:31.596Z,97538.19
2023-03-31T00:29:35.941Z,97542.28
2023-03-31T00:32:40.439Z,97537.31
2023-03-31T00:35:43.717Z,97525.06
2023-03-31T00:38:46.861Z,97519.31
2023-03-31T00:41:50.276Z,97519.78
2023-03-31T00:45:24.958Z,97498.34
2023-03-31T00:48:29.625Z,97499.84
2023-03-31T00:51:35.658Z,97498.44
2023-03-31T00:54:40.761Z,97503.63
2023-03-31T00:57:46.801Z,97503.75
2023-03-31T01:00:53.083Z,97502.72
2023-03-31T01:03:59.364Z,97485.97
2023-03-31T01:07:09.311Z,97481.66
2023-03-31T01:10:12.568Z,97482.19
2023-03-31T01:13:17.531Z,97469.28
2023-03-31T01:16:20.363Z,97462.06
2023-03-31T01:19:37.075Z,97458.75
2023-03-31T01:23:18.227Z,97448.16
2023-03-31T01:26:52.552Z,97442.84
2023-03-31T01:30:33.883Z,97425.84
2023-03-31T01:34:09.109Z,97433.31
2023-03-31T01:37:50.712Z,97433.94
2023-03-31T01:41:07.732Z,97431.06
2023-03-31T01:44:20.759Z,97439.16
2023-03-31T01:47:32.917Z,97438.38
2023-03-31T01:50:39.818Z,97434.75
2023-03-31T01:53:51.708Z,97438.25
2023-03-31T01:57:02.000Z,97441.28
2023-03-31T02:00:11.463Z,97447.00
2023-03-31T02:03:18.820Z,97445.59
2023-03-31T02:06:26.450Z,97445.09
2023-03-31T02:09:33.333Z,97436.53
2023-03-31T02:12:41.628Z,97441.94
2023-03-31T02:15:49.929Z,97436.16
2023-03-31T02:19:02.727Z,97424.63
2023-03-31T02:22:07.268Z,97420.09
2023-03-31T02:25:13.705Z,97405.66
2023-03-31T02:28:22.270Z,97405.66
2023-03-31T02:31:30.483Z,97404.72
2023-03-31T02:34:33.399Z,97399.34
2023-03-31T02:37:36.671Z,97382.97
2023-03-31T02:40:39.409Z,97373.59
2023-03-31T02:43:43.906Z,97360.41
2023-03-31T02:46:48.016Z,97349.50
2023-03-31T02:49:53.662Z,97324.25
2023-03-31T02:53:04.478Z,97313.44
2023-03-31T02:56:23.278Z,97316.19
2023-03-31T02:59:42.470Z,97296.34
2023-03-31T03:03:03.233Z,97287.28
2023-03-31T03:06:19.277Z,97282.13
2023-03-31T03:09:37.500Z,97268.06
2023-03-31T03:12:46.227Z,97254.66
2023-03-31T03:15:57.018Z,97246.13
2023-03-31T03:19:02.378Z,97226.94
2023-03-31T03:22:06.448Z,97214.94
2023-03-31T03:25:14.485Z,97205.91
2023-03-31T03:28:17.467Z,97198.28
2023-03-31T03:31:23.864Z,97191.88
2023-03-31T03:34:27.107Z,97190.47
2023-03-31T03:37:30.557Z,97186.47
2023-03-31T03:40:33.287Z,97190.56
2023-03-31T03:43:36.020Z,97174.13
2023-03-31T03:46:40.201Z,97175.72
2023-03-31T03:49:43.128Z,97174.00
2023-03-31T03:52:46.098Z,97162.28
2023-03-31T03:55:49.829Z,97149.78
2023-03-31T03:58:52.757Z,97143.44
2023-03-31T04:01:57.005Z,97117.47
2023-03-31T04:04:59.814Z,97123.31
2023-03-31T04:08:02.878Z,97108.44
2023-03-31T04:11:16.642Z,97098.44
2023-03-31T04:14:20.918Z,97096.03
2023-03-31T04:17:32.797Z,97091.41
2023-03-31T04:20:37.777Z,97085.69
2023-03-31T04:23:42.830Z,97076.97
2023-03-31T04:26:45.669Z,97069.13
2023-03-31T04:29:54.735Z,97062.31
2023-03-31T04:33:01.092Z,97072.47
2023-03-31T04:36:07.214Z,97077.84
2023-03-31T04:39:11.930Z,97074.06
2023-03-31T04:42:15.108Z,97068.72
2023-03-31T04:45:18.453Z,97050.00
2023-03-31T04:48:22.617Z,97034.03
2023-03-31T04:51:25.427Z,97027.25
2023-03-31T04:54:28.165Z,97025.06
2023-03-31T04:57:31.013Z,97026.50
2023-03-31T05:00:33.841Z,97033.03
2023-03-31T05:03:38.071Z,97036.28
2023-03-31T05:06:41.126Z,97024.09
2023-03-31T05:09:43.968Z,97030.09
2023-03-31T05:12:46.808Z,97034.63
2023-03-31T05:15:50.813Z,97048.53
2023-03-31T05:18:55.344Z,97065.47
2023-03-31T05:21:58.322Z,97079.88
2023-03-31T05:25:01.153Z,97091.94
2023-03-31T05:28:04.103Z,97100.16
2023-03-31T05:31:08.107Z,97081.94
2023-03-31T05:34:12.509Z,97079.19
2023-03-31T05:37:15.446Z,97083.00
2023-03-31T05:40:18.394Z,97060.38
2023-03-31T05:43:21.360Z,97054.34
2023-03-31T05:46:24.470Z,97057.22
2023-03-31T05:49:28.701Z,97058.28
2023-03-31T05:52:32.878Z,97041.97
2023-03-31T05:55:37.432Z,97036.50
2023-03-31T05:58:41.582Z,97015.13
2023-03-31T06:01:44.709Z,97002.81
2023-03-31T06:04:49.089Z,96999.16
2023-03-31T06:07:52.057Z,96998.84
2023-03-31T06:10:55.028Z,96998.97
2023-03-31T06:13:57.957Z,96992.19
2023-03-31T06:17:01.783Z,96987.44
2023-03-31T06:20:19.741Z,96976.78
2023-03-31T06:23:30.343Z,96965.84
2023-03-31T06:26:33.240Z,96964.25
2023-03-31T06:29:36.442Z,96961.88
2023-03-31T06:32:39.504Z,96960.13
2023-03-31T06:35:43.931Z,96963.91
2023-03-31T06:38:47.184Z,96952.06
2023-03-31T06:41:50.069Z,96949.53
2023-03-31T06:44:53.207Z,96952.44
2023-03-31T06:47:56.317Z,96963.94
2023-03-31T06:51:02.856Z,96972.31
2023-03-31T06:54:06.269Z,96979.03
2023-03-31T06:57:09.845Z,96998.09
2023-03-31T07:00:17.555Z,97008.81
2023-03-31T07:03:22.557Z,97020.56
2023-03-31T07:06:27.215Z,97039.56
2023-03-31T07:09:29.955Z,97029.09
2023-03-31T07:12:33.810Z,97014.31
2023-03-31T07:15:36.778Z,97010.56
2023-03-31T07:18:42.208Z,96920.13
2023-03-31T07:21:46.523Z,96919.84
2023-03-31T07:24:49.498Z,96912.44
2023-03-31T07:27:52.747Z,96919.53
2023-03-31T07:30:56.285Z,96926.16
2023-03-31T07:33:59.270Z,96934.06
2023-03-31T07:37:03.782Z,96929.63
2023-03-31T07:40:08.450Z,96932.97
2023-03-31T07:43:11.365Z,96931.13
2023-03-31T07:46:19.815Z,96941.41
2023-03-31T07:49:22.770Z,96933.88
2023-03-31T07:52:27.029Z,96928.00
2023-03-31T07:55:30.112Z,96926.41
2023-03-31T07:58:32.805Z,96920.53
2023-03-31T08:01:36.173Z,96911.69
2023-03-31T08:04:39.225Z,96923.53
2023-03-31T08:07:45.326Z,96915.78
2023-03-31T08:10:48.398Z,96925.59
2023-03-31T08:13:51.657Z,96917.81
2023-03-31T08:16:55.405Z,96917.16
2023-03-31T08:20:01.626Z,96910.41
2023-03-31T08:23:11.424Z,96903.00
2023-03-31T08:26:18.251Z,96901.63
2023-03-31T08:29:21.181Z,96897.88
2023-03-31T08:32:25.241Z,96900.47
2023-03-31T08:35:28.038Z,96891.59
2023-03-31T08:38:33.120Z,96875.72
2023-03-31T08:41:48.311Z,96888.06
2023-03-31T08:44:59.125Z,96888.00
2023-03-31T08:48:07.590Z,96868.78
2023-03-31T08:51:15.372Z,96873.13
2023-03-31T08:54:26.939Z,96877.97
2023-03-31T08:57:37.118Z,96886.97
2023-03-31T09:00:47.896Z,96875.94
2023-03-31T09:04:12.539Z,96877.50
2023-03-31T09:07:21.446Z,96875.59
2023-03-31T09:10:37.836Z,96873.34
2023-03-31T09:14:10.415Z,96866.59
2023-03-31T09:17:21.515Z,96864.94
2023-03-31T09:20:29.471Z,96857.56
2023-03-31T09:23:36.168Z,96843.03
2023-03-31T09:26:42.586Z,96866.81
2023-03-31T09:29:50.742Z,96862.75
2023-03-31T09:32:59.653Z,96856.97
2023-03-31T09:36:03.958Z,96882.06
2023-03-31T09:39:08.115Z,96872.69
2023-03-31T09:42:14.499Z,96867.47
2023-03-31T09:45:21.520Z,96880.13
2023-03-31T09:48:28.042Z,96858.34
2023-03-31T09:51:37.283Z,96846.28
2023-03-31T09:54:45.850Z,96849.53
2023-03-31T09:57:50.256Z,96829.94
2023-03-31T10:01:05.502Z,96826.09
2023-03-31T10:04:09.979Z,96813.09
2023-03-31T10:07:14.765Z,96824.53
2023-03-31T10:10:28.193Z,96817.88
2023-03-31T10:13:44.907Z,96813.56
2023-03-31T10:16:51.432Z,96804.63
2023-03-31T10:19:57.072Z,96802.03
2023-03-31T10:23:05.693Z,96798.94
2023-03-31T10:26:14.968Z,96806.91
2023-03-31T10:29:25.908Z,96799.94
2023-03-31T10:32:31.637Z,96780.22
2023-03-31T10:35:36.470Z,96773.47
2023-03-31T10:38:45.236Z,96773.38
2023-03-31T10:41:52.654Z,96765.19
2023-03-31T10:45:23.245Z,96762.44
2023-03-31T10:48:34.740Z,96763.00
2023-03-31T10:51:37.490Z,96755.63
2023-03-31T10:54:47.902Z,96738.19
2023-03-31T10:57:57.044Z,96737.16
2023-03-31T11:01:12.597Z,96731.09
2023-03-31T11:04:40.616Z,96739.59
2023-03-31T11:07:55.492Z,96728.34
2023-03-31T11:11:31.215Z,96755.06
2023-03-31T11:14:46.590Z,96767.97
2023-03-31T11:18:06.816Z,96793.50
2023-03-31T11:21:20.311Z,96835.16
2023-03-31T11:24:35.035Z,96900.84
2023-03-31T11:27:53.696Z,96901.38
2023-03-31T11:31:08.054Z,96877.16
2023-03-31T11:34:27.485Z,96892.88
2023-03-31T11:37:46.154Z,96882.94
2023-03-31T11:41:01.371Z,96893.97
2023-03-31T11:44:06.779Z,96888.75
2023-03-31T11:47:14.335Z,96888.28
2023-03-31T11:50:22.168Z,96886.06
2023-03-31T11:53:28.428Z,96867.09
2023-03-31T11:56:36.507Z,96874.22
2023-03-31T11:59:41.735Z,96861.38
2023-03-31T12:02:50.306Z,96848.41
2023-03-31T12:05:59.913Z,96852.69
2023-03-31T12:09:18.445Z,96822.88
2023-03-31T12:12:25.640Z,96819.53
2023-03-31T12:15:32.481Z,96816.63
2023-03-31T12:18:39.783Z,96819.69
2023-03-31T12:21:48.256Z,96810.19
2023-03-31T12:24:52.887Z,96805.75
2023-03-31T12:27:56.907Z,96804.75
2023-03-31T12:31:04.371Z,96791.59
2023-03-31T12:34:12.431Z,96792.31
2023-03-31T12:37:35.896Z,96784.69
2023-03-31T12:40:46.705Z,96779.97
2023-03-31T12:44:01.601Z,96777.38
2023-03-31T12:47:27.904Z,96748.53
2023-03-31T12:50:48.607Z,96732.88
2023-03-31T12:54:07.023Z,96741.44
2023-03-31T12:57:21.877Z,96733.44
2023-03-31T13:00:27.593Z,96735.25
2023-03-31T13:03:45.164Z,96763.13
2023-03-31T13:06:53.800Z,96749.56
2023-03-31T13:10:25.827Z,96765.81
2023-03-31T13:13:29.002Z,96786.22
2023-03-31T13:16:32.869Z,96760.78
2023-03-31T13:19:37.353Z,96770.53
2023-03-31T13:22:44.067Z,96756.94
2023-03-31T13:25:51.415Z,96760.59
2023-03-31T13:29:19.906Z,96770.03
2023-03-31T13:32:23.818Z,96764.41
2023-03-31T13:35:34.043Z,96769.25
2023-03-31T13:38:51.328Z,96750.19
2023-03-31T13:42:05.573Z,96749.34
2023-03-31T13:45:35.335Z,96762.75
2023-03-31T13:48:48.878Z,96752.00
2023-03-31T13:51:57.130Z,96733.41
2023-03-31T13:55:37.354Z,96715.78
2023-03-31T13:58:53.910Z,96706.72
2023-03-31T14:02:28.244Z,96702.34
2023-03-31T14:05:34.944Z,96712.03
2023-03-31T14:08:51.503Z,96713.25
2023-03-31T14:11:54.639Z,96713.50
2023-03-31T14:14:58.814Z,96711.00
2023-03-31T14:18:01.792Z,96719.84
2023-03-31T14:21:13.703Z,96730.84
2023-03-31T14:24:28.066Z,96733.13
2023-03-31T14:27:51.737Z,96726.88
2023-03-31T14:31:11.154Z,96739.16
2023-03-31T14:34:29.518Z,96737.91
2023-03-31T14:37:32.722Z,96721.59
2023-03-31T14:40:47.898Z,96715.72
2023-03-31T14:43:54.004Z,96724.50
2023-03-31T14:46:59.562Z,96731.78
2023-03-31T14:50:07.802Z,96709.00
2023-03-31T14:53:16.270Z,96716.72
2023-03-31T14:56:31.722Z,96709.34
2023-03-31T14:59:37.451Z,96707.22
2023-03-31T15:02:44.562Z,96715.38
2023-03-31T15:05:50.204Z,96696.13
2023-03-31T15:08:58.224Z,96696.81
2023-03-31T15:12:03.977Z,96688.72
2023-03-31T15:15:08.265Z,96700.88
2023-03-31T15:18:14.842Z,96671.91
2023-03-31T15:21:22.479Z,96683.03
2023-03-31T15:24:25.628Z,96679.19
2023-03-31T15:27:37.444Z,96688.78
2023-03-31T15:30:41.257Z,96679.34
2023-03-31T15:33:45.953Z,96675.69
2023-03-31T15:36:50.839Z,96691.78
2023-03-31T15:39:56.361Z,96687.91
2023-03-31T15:43:13.960Z,96698.31
2023-03-31T15:46:56.909Z,96686.72
2023-03-31T15:50:13.150Z,96705.28
2023-03-31T15:53:27.442Z,96701.91
2023-03-31T15:56:34.862Z,96681.88
2023-03-31T15:59:55.286Z,96688.63
2023-03-31T16:03:01.850Z,96698.50
2023-03-31T16:06:10.749Z,96699.28
2023-03-31T16:09:17.713Z,96699.38
2023-03-31T16:12:24.957Z,96723.31
2023-03-31T16:15:35.272Z,96722.72
2023-03-31T16:18:43.068Z,96732.53
2023-03-31T16:21:52.769Z,96743.56
2023-03-31T16:24:55.799Z,96749.00
2023-03-31T16:28:01.113Z,96770.44
2023-03-31T16:31:06.017Z,96741.06
2023-03-31T16:34:11.135Z,96727.88
2023-03-31T16:37:15.472Z,96748.16
2023-03-31T16:40:18.221Z,96758.22
2023-03-31T16:43:22.985Z,96745.47
2023-03-31T16:46:26.356Z,96736.84
2023-03-31T16:49:29.490Z,96721.66
2023-03-31T16:52:34.025Z,96716.28
2023-03-31T16:55:36.743Z,96706.59
2023-03-31T16:58:40.324Z,96698.41
2023-03-31T17:01:43.219Z,96693.88
2023-03-31T17:04:46.117Z,96688.16
2023-03-31T17:07:50.364Z,96695.63
2023-03-31T17:10:55.510Z,96714.03
2023-03-31T17:14:00.232Z,96715.16
2023-03-31T17:17:03.276Z,96718.84
2023-03-31T17:20:08.098Z,96731.38
2023-03-31T17:23:12.566Z,96733.75
2023-03-31T17:26:15.675Z,96739.13
2023-03-31T17:29:18.464Z,96736.31
2023-03-31T17:32:21.899Z,96743.78
2023-03-31T17:35:25.043Z,96753.41
2023-03-31T17:38:29.981Z,96756.16
2023-03-31T17:41:33.172Z,96758.38
2023-03-31T17:44:36.414Z,96760.59
2023-03-31T17:47:39.174Z,96772.50
2023-03-31T17:50:41.880Z,96782.13
2023-03-31T17:53:47.759Z,96808.25
2023-03-31T17:56:50.862Z,96828.66
2023-03-31T17:59:53.824Z,96818.22
2023-03-31T18:02:56.620Z,96803.06
2023-03-31T18:06:04.838Z,96799.94
2023-03-31T18:09:09.470Z,96804.63
2023-03-31T18:12:12.407Z,96788.53
2023-03-31T18:15:15.809Z,96806.06
2023-03-31T18:18:18.702Z,96786.56
2023-03-31T18:21:21.655Z,96799.81
2023-03-31T18:24:26.077Z,96795.88
2023-03-31T18:27:28.820Z,96800.59
2023-03-31T18:30:32.245Z,96798.19
2023-03-31T18:33:35.652Z,96793.31
2023-03-31T18:36:39.113Z,96789.03
2023-03-31T18:39:43.424Z,96786.97
2023-03-31T18:42:47.643Z,96792.06
2023-03-31T18:45:51.257Z,96788.25
2023-03-31T18:48:54.516Z,96782.09
2023-03-31T18:51:58.744Z,96784.00
2023-03-31T18:55:03.102Z,96786.22
2023-03-31T18:58:05.843Z,96779.25
2023-03-31T19:01:08.686Z,96777.81
2023-03-31T19:04:11.905Z,96790.25
2023-03-31T19:07:15.671Z,96789.06
2023-03-31T19:10:19.934Z,96787.00
2023-03-31T19:13:22.659Z,96789.38
2023-03-31T19:16:26.920Z,96787.13
2023-03-31T19:19:30.238Z,96784.13
2023-03-31T19:22:33.151Z,96792.38
2023-03-31T19:25:37.446Z,96788.56
2023-03-31T19:28:40.570Z,96783.84
2023-03-31T19:31:45.200Z,96780.69
2023-03-31T19:34:47.994Z,96779.28
2023-03-31T19:37:52.449Z,96777.22
2023-03-31T19:40:56.635Z,96785.94
2023-03-31T19:43:59.588Z,96784.97
2023-03-31T19:47:02.251Z,96774.72
2023-03-31T19:50:05.638Z,96791.63
2023-03-31T19:53:08.330Z,96785.00
2023-03-31T19:56:14.417Z,96786.25
2023-03-31T19:59:17.601Z,96788.78
2023-03-31T20:02:20.853Z,96795.38
2023-03-31T20:05:23.780Z,96795.75
2023-03-31T20:08:26.672Z,96790.97
2023-03-31T20:11:32.157Z,96782.16
2023-03-31T20:14:35.391Z,96784.00
2023-03-31T20:17:38.643Z,96787.97
2023-03-31T20:20:41.851Z,96794.91
2023-03-31T20:23:46.575Z,96793.06
2023-03-31T20:26:50.957Z,96801.25
2023-03-31T20:29:53.929Z,96799.41
2023-03-31T20:32:56.641Z,96801.59
2023-03-31T20:36:02.846Z,96799.66
2023-03-31T20:39:06.527Z,96802.19
2023-03-31T20:42:11.031Z,96793.53
2023-03-31T20:45:14.005Z,96804.72
2023-03-31T20:48:17.828Z,96801.72
2023-03-31T20:51:23.158Z,96803.44
2023-03-31T20:54:26.129Z,96812.94
2023-03-31T20:57:31.170Z,96822.22
2023-03-31T21:00:34.135Z,96812.41
2023-03-31T21:03:37.773Z,96828.56
2023-03-31T21:06:42.726Z,96822.56
2023-03-31T21:09:45.583Z,96815.63
2023-03-31T21:12:49.806Z,96816.03
2023-03-31T21:15:54.588Z,96812.69
2023-03-31T21:18:59.248Z,96811.78
2023-03-31T21:22:02.147Z,96811.63
2023-03-31T21:25:05.892Z,96810.97
2023-03-31T21:28:10.510Z,96811.94
2023-03-31T21:31:15.169Z,96812.41
2023-03-31T21:34:17.939Z,96814.47
2023-03-31T21:37:20.846Z,96820.00
2023-03-31T21:40:23.835Z,96832.00
2023-03-31T21:43:28.571Z,96829.16
2023-03-31T21:46:33.882Z,96837.53
2023-03-31T21:49:37.055Z,96826.31
2023-03-31T21:52:39.795Z,96840.47
2023-03-31T21:55:44.663Z,96844.72
2023-03-31T21:58:48.814Z,96858.63
2023-03-31T22:01:52.265Z,96859.25
2023-03-31T22:04:55.202Z,96846.81
2023-03-31T22:07:57.895Z,96857.19
2023-03-31T22:11:01.666Z,96849.44
2023-03-31T22:14:06.410Z,96838.88
2023-03-31T22:17:09.153Z,96837.44
2023-03-31T22:20:13.564Z,96840.44
2023-03-31T22:23:17.143Z,96841.06
2023-03-31T22:26:20.151Z,96847.50
2023-03-31T22:29:24.428Z,96845.16
2023-03-31T22:32:27.631Z,96841.75
2023-03-31T22:35:30.789Z,96839.25
2023-03-31T22:38:34.216Z,96845.06
2023-03-31T22:41:37.087Z,96840.13
2023-03-31T22:44:41.417Z,96844.53
2023-03-31T22:47:44.375Z,96837.84
2023-03-31T22:50:47.469Z,96853.31
2023-03-31T22:53:52.095Z,96838.81
2023-03-31T22:56:55.460Z,96844.75
2023-03-31T22:59:59.746Z,96839.91
2023-03-31T23:03:02.622Z,96843.81
2023-03-31T23:06:06.586Z,96841.50
2023-03-31T23:09:09.391Z,96836.22
2023-03-31T23:12:12.117Z,96842.78
2023-03-31T23:15:16.427Z,96839.31
2023-03-31T23:18:19.353Z,96843.94
2023-03-31T23:21:24.236Z,96841.25
2023-03-31T23:24:29.262Z,96833.72
2023-03-31T23:27:32.118Z,96836.69
2023-03-31T23:30:36.534Z,96847.25
2023-03-31T23:33:39.400Z,96835.25
2023-03-31T23:36:42.373Z,96836.22
2023-03-31T23:39:45.607Z,96827.06
2023-03-31T23:42:48.636Z,96836.16
2023-03-31T23:45:53.085Z,96835.66
2023-03-31T23:48:56.407Z,96834.94
2023-03-31T23:51:59.127Z,96829.47
2023-03-31T23:55:02.003Z,96826.28
2023-03-31T23:58:05.517Z,96827.38
